Time;durP1;ratioP1;P1;durP2;ratioP2;P2;SDS_P1;SDS_P2;PMS_P1;PMS_P2;Temp;Humidity;BMP_temperature;BMP_pressure;BME280_temperature;BME280_humidity;BME280_pressure;Samples;Min_cycle;Max_cycle;Signal;HPM_P1;HPM_P2
2023/10/01 00:00:28;;;;;;;30.50;11.15;;;16.90;75.40;;;;;;9166092;19;20590;-74
2023/10/01 00:03:36;;;;;;;16.33;10.13;;;16.90;75.40;;;;;;9166523;19;20379;-70
2023/10/01 00:06:43;;;;;;;16.08;8.90;;;16.90;75.40;;;;;;9167196;19;20421;-72
2023/10/01 00:09:50;;;;;;;17.77;10.30;;;16.80;75.40;;;;;;9167529;19;20501;-73
2023/10/01 00:12:58;;;;;;;24.65;10.23;;;16.80;75.50;;;;;;9165948;19;20435;-73
2023/10/01 00:16:08;;;;;;;23.23;10.60;;;16.80;75.60;;;;;;9163190;19;20025;-73
2023/10/01 00:19:13;;;;;;;18.83;10.27;;;16.90;75.70;;;;;;9163711;19;20017;-71
2023/10/01 00:22:21;;;;;;;21.05;10.30;;;16.80;75.60;;;;;;9165577;19;20003;-75
2023/10/01 00:25:27;;;;;;;20.85;10.48;;;16.80;75.70;;;;;;9165209;19;20655;-73
2023/10/01 00:28:35;;;;;;;19.00;10.02;;;16.80;75.80;;;;;;9166478;19;20019;-72
2023/10/01 00:31:43;;;;;;;16.20;10.20;;;16.90;77.00;;;;;;9164432;19;20018;-72
2023/10/01 00:34:51;;;;;;;15.80;9.30;;;16.90;79.60;;;;;;9165472;19;20023;-74
2023/10/01 00:38:00;;;;;;;17.23;10.07;;;17.00;81.00;;;;;;9164137;19;20043;-74
2023/10/01 00:41:09;;;;;;;19.10;10.00;;;16.80;75.40;;;;;;9163883;19;20017;-75
2023/10/01 00:44:15;;;;;;;22.38;10.65;;;16.90;82.30;;;;;;9164325;19;20018;-75
2023/10/01 00:47:25;;;;;;;21.15;10.52;;;16.80;76.00;;;;;;9163332;19;20342;-71
2023/10/01 00:50:31;;;;;;;26.58;10.65;;;16.90;76.00;;;;;;9162844;19;20644;-73
2023/10/01 00:53:39;;;;;;;21.13;10.63;;;16.70;75.90;;;;;;9163169;19;20097;-72
2023/10/01 00:56:44;;;;;;;18.50;10.65;;;16.70;75.90;;;;;;9164079;19;20014;-73
2023/10/01 00:59:53;;;;;;;27.77;11.90;;;16.70;76.00;;;;;;9163034;19;20017;-73
2023/10/01 01:03:06;;;;;;;20.75;10.68;;;16.70;75.90;;;;;;9163486;19;20827;-73
2023/10/01 01:06:17;;;;;;;20.85;10.95;;;16.80;76.00;;;;;;9164295;19;20041;-73
2023/10/01 01:09:23;;;;;;;21.00;11.32;;;16.70;76.00;;;;;;9165487;19;20635;-72
2023/10/01 01:12:32;;;;;;;26.30;11.13;;;16.70;76.00;;;;;;9164834;19;20040;-73
2023/10/01 01:15:38;;;;;;;20.90;10.90;;;16.70;76.00;;;;;;9163201;19;20014;-74
2023/10/01 01:18:51;;;;;;;21.48;10.40;;;16.70;76.60;;;;;;9163274;19;20064;-73
2023/10/01 01:21:57;;;;;;;18.27;10.52;;;16.60;76.00;;;;;;9163469;19;20011;-74
2023/10/01 01:25:10;;;;;;;21.83;10.80;;;16.70;76.00;;;;;;9163674;19;20022;-73
2023/10/01 01:28:24;;;;;;;19.48;10.43;;;16.60;76.10;;;;;;9164110;19;20023;-71
2023/10/01 01:31:45;;;;;;;21.27;10.98;;;16.60;76.00;;;;;;9163738;19;20018;-74
2023/10/01 01:34:52;;;;;;;19.75;10.35;;;16.60;76.00;;;;;;9162747;19;20058;-73
2023/10/01 01:38:07;;;;;;;20.95;9.90;;;16.60;76.00;;;;;;9162811;19;20108;-70
2023/10/01 01:41:19;;;;;;;22.40;10.18;;;16.60;76.00;;;;;;9162300;19;20078;-70
2023/10/01 01:44:26;;;;;;;21.17;10.07;;;16.60;76.00;;;;;;9161691;19;20357;-71
2023/10/01 01:47:31;;;;;;;19.65;10.00;;;16.60;76.00;;;;;;9162560;19;20026;-73
2023/10/01 01:50:41;;;;;;;17.20;9.55;;;16.50;76.00;;;;;;9162564;19;20050;-72
2023/10/01 01:53:50;;;;;;;23.80;10.52;;;16.50;76.00;;;;;;9160075;19;20052;-72
2023/10/01 01:57:00;;;;;;;19.08;10.45;;;16.60;76.10;;;;;;9161958;19;20086;-72
2023/10/01 02:00:14;;;;;;;17.88;9.05;;;16.60;76.10;;;;;;9160471;19;20018;-71
2023/10/01 02:03:22;;;;;;;17.58;9.57;;;16.50;76.10;;;;;;9163276;19;20025;-73
2023/10/01 02:06:31;;;;;;;18.67;9.90;;;16.50;76.10;;;;;;9163972;19;20560;-72
2023/10/01 02:09:38;;;;;;;21.35;10.13;;;16.50;76.10;;;;;;9164245;19;20022;-72
2023/10/01 02:12:47;;;;;;;18.58;10.00;;;16.50;76.10;;;;;;9162594;19;20007;-71
2023/10/01 02:15:55;;;;;;;22.30;10.38;;;16.50;76.10;;;;;;9161502;19;20025;-72
2023/10/01 02:19:11;;;;;;;16.10;9.50;;;16.50;76.10;;;;;;9160522;19;20014;-70
2023/10/01 02:22:20;;;;;;;23.55;9.75;;;16.50;76.00;;;;;;9162353;19;20014;-74
2023/10/01 02:25:37;;;;;;;18.40;9.40;;;16.50;76.00;;;;;;9168109;19;20018;-73
2023/10/01 02:28:47;;;;;;;21.17;10.25;;;16.50;76.10;;;;;;9169357;19;20021;-74
2023/10/01 02:31:57;;;;;;;21.73;10.35;;;16.50;76.10;;;;;;9171454;19;20023;-72
2023/10/01 02:35:34;;;;;;;17.65;9.52;;;16.50;76.20;;;;;;9172382;19;20015;-73
2023/10/01 02:38:45;;;;;;;20.05;10.30;;;16.50;76.20;;;;;;9171799;19;20014;-72
2023/10/01 02:45:30;;;;;;;20.58;9.57;;;16.50;76.10;;;;;;9170351;19;20017;-75
2023/10/01 02:48:40;;;;;;;21.52;10.30;;;16.40;76.10;;;;;;9168964;19;20018;-71
2023/10/01 02:51:46;;;;;;;19.30;10.02;;;16.40;76.10;;;;;;9171487;19;20559;-70
2023/10/01 02:54:57;;;;;;;16.65;9.75;;;16.50;76.10;;;;;;9166843;19;20014;-72
2023/10/01 02:58:17;;;;;;;21.77;10.50;;;16.40;76.10;;;;;;9170551;19;20032;-73
2023/10/01 03:01:29;;;;;;;21.17;10.10;;;16.40;76.10;;;;;;9167778;19;20029;-72
2023/10/01 03:04:34;;;;;;;18.95;9.45;;;16.40;76.20;;;;;;9168328;19;20811;-73
2023/10/01 03:07:45;;;;;;;19.45;9.85;;;16.40;76.20;;;;;;9170543;19;20014;-75
2023/10/01 03:10:52;;;;;;;18.60;9.95;;;16.40;76.20;;;;;;9170340;19;20386;-72
2023/10/01 03:14:04;;;;;;;17.63;10.07;;;16.40;76.30;;;;;;9166667;19;20034;-71
2023/10/01 03:17:17;;;;;;;20.33;11.32;;;16.40;76.30;;;;;;9169661;19;20489;-73
2023/10/01 03:23:51;;;;;;;18.70;9.15;;;16.40;76.30;;;;;;9167721;19;20014;-74
2023/10/01 03:27:13;;;;;;;18.58;10.30;;;16.40;76.40;;;;;;9169185;19;20404;-72
2023/10/01 03:30:23;;;;;;;21.85;10.02;;;16.40;76.40;;;;;;9166783;19;20034;-71
2023/10/01 03:33:33;;;;;;;16.85;9.38;;;16.40;76.30;;;;;;9168796;19;20034;-72
2023/10/01 03:36:42;;;;;;;18.77;9.30;;;16.40;76.40;;;;;;9164042;19;20015;-70
2023/10/01 03:39:50;;;;;;;20.13;9.45;;;16.50;76.40;;;;;;9166034;19;20014;-71
2023/10/01 03:42:55;;;;;;;16.48;9.90;;;16.40;76.30;;;;;;9167594;19;20028;-71
2023/10/01 03:46:13;;;;;;;20.15;9.65;;;16.40;77.00;;;;;;9168026;19;20029;-72
2023/10/01 03:49:40;;;;;;;17.13;8.95;;;16.40;76.40;;;;;;9167988;19;20010;-69
2023/10/01 03:52:52;;;;;;;16.50;8.88;;;16.40;76.30;;;;;;9167581;19;20026;-73
2023/10/01 03:55:57;;;;;;;18.75;9.70;;;16.40;76.40;;;;;;9163141;19;20030;-72
2023/10/01 03:59:15;;;;;;;21.75;9.52;;;16.40;76.40;;;;;;9165543;19;20026;-71
2023/10/01 04:02:43;;;;;;;17.95;9.05;;;16.40;76.40;;;;;;9165384;19;20274;-72
2023/10/01 04:05:56;;;;;;;22.13;9.07;;;16.40;76.30;;;;;;9168271;19;20033;-72
2023/10/01 04:09:06;;;;;;;21.63;10.25;;;16.40;76.40;;;;;;9165250;19;20011;-74
2023/10/01 04:12:28;;;;;;;18.05;9.63;;;16.40;76.30;;;;;;9167042;19;20021;-69
2023/10/01 04:15:40;;;;;;;17.75;9.43;;;16.40;77.00;;;;;;9165261;19;20418;-72
2023/10/01 04:18:48;;;;;;;25.15;9.75;;;16.40;76.40;;;;;;9166510;19;20014;-72
2023/10/01 04:21:57;;;;;;;17.75;8.98;;;16.40;76.40;;;;;;9164130;19;20566;-72
2023/10/01 04:25:10;;;;;;;16.98;9.00;;;16.40;76.50;;;;;;9166694;19;20014;-72
2023/10/01 04:28:15;;;;;;;18.42;8.90;;;16.30;76.50;;;;;;9166473;19;20014;-70
2023/10/01 04:31:42;;;;;;;19.67;9.88;;;16.30;76.50;;;;;;9165465;19;20022;-71
2023/10/01 04:34:49;;;;;;;17.67;8.77;;;16.30;76.40;;;;;;9164751;19;20014;-72
2023/10/01 04:38:04;;;;;;;19.98;9.50;;;16.30;76.40;;;;;;9165217;19;20018;-72
2023/10/01 04:41:10;;;;;;;16.77;9.13;;;16.30;76.40;;;;;;9163812;19;20664;-74
2023/10/01 04:44:19;;;;;;;22.00;10.00;;;16.30;76.40;;;;;;9164039;19;20010;-74
2023/10/01 04:47:40;;;;;;;21.25;9.32;;;16.30;76.50;;;;;;9163703;19;20018;-70
2023/10/01 04:50:50;;;;;;;18.00;8.70;;;16.30;76.50;;;;;;9165305;19;20022;-73
2023/10/01 04:54:00;;;;;;;22.25;9.02;;;16.30;76.60;;;;;;9160466;19;20033;-74
2023/10/01 04:57:07;;;;;;;17.30;8.85;;;16.30;76.60;;;;;;9165944;19;20029;-72
2023/10/01 05:00:14;;;;;;;20.67;8.98;;;16.30;76.60;;;;;;9164195;19;20014;-73
2023/10/01 05:03:36;;;;;;;18.02;9.07;;;16.30;76.60;;;;;;9166215;19;20070;-72
2023/10/01 05:06:43;;;;;;;18.23;9.25;;;16.30;76.60;;;;;;9163199;19;20482;-74
2023/10/01 05:09:53;;;;;;;19.00;8.77;;;16.30;76.60;;;;;;9163125;19;20017;-72
2023/10/01 05:13:02;;;;;;;19.35;8.20;;;16.30;76.60;;;;;;9164766;19;20484;-70
2023/10/01 05:16:12;;;;;;;19.25;8.68;;;16.30;76.60;;;;;;9162650;19;20018;-72
2023/10/01 05:19:23;;;;;;;17.27;8.07;;;16.30;76.60;;;;;;9164738;19;20756;-74
2023/10/01 05:22:30;;;;;;;18.55;8.45;;;16.30;76.60;;;;;;9161212;19;20022;-72
2023/10/01 05:25:45;;;;;;;18.65;8.82;;;16.30;76.60;;;;;;9162628;19;20288;-72
2023/10/01 05:28:54;;;;;;;14.07;8.10;;;16.30;76.70;;;;;;9161674;19;20018;-73
2023/10/01 05:32:01;;;;;;;19.73;8.10;;;16.30;76.60;;;;;;9160705;19;20467;-72
2023/10/01 05:35:15;;;;;;;17.38;8.30;;;16.30;76.70;;;;;;9162157;19;20023;-72
2023/10/01 05:38:20;;;;;;;17.75;7.80;;;16.30;76.70;;;;;;9160746;19;20018;-73
2023/10/01 05:41:34;;;;;;;22.85;7.60;;;16.30;76.70;;;;;;9159116;19;20383;-71
2023/10/01 05:44:42;;;;;;;30.75;8.48;;;16.30;76.70;;;;;;9161504;19;20394;-72
2023/10/01 05:47:54;;;;;;;21.80;8.90;;;16.20;76.60;;;;;;9161598;19;20503;-72
2023/10/01 05:51:00;;;;;;;16.45;8.13;;;16.30;76.70;;;;;;9164589;19;20368;-72
2023/10/01 05:54:08;;;;;;;16.38;7.13;;;16.30;76.70;;;;;;9158184;19;20408;-72
2023/10/01 05:57:16;;;;;;;14.40;7.70;;;16.20;76.70;;;;;;9163840;19;20015;-73
2023/10/01 06:00:27;;;;;;;17.48;7.53;;;16.30;76.70;;;;;;9171125;19;20018;-73
2023/10/01 06:03:33;;;;;;;16.67;6.63;;;16.30;76.70;;;;;;9170569;19;20497;-76
2023/10/01 06:06:43;;;;;;;22.70;7.70;;;16.30;76.90;;;;;;9172376;19;20011;-72
2023/10/01 06:09:49;;;;;;;22.75;7.95;;;16.30;76.70;;;;;;9172617;19;20022;-71
2023/10/01 06:13:01;;;;;;;20.17;7.07;;;16.30;76.70;;;;;;9173052;19;20027;-72
2023/10/01 06:16:15;;;;;;;17.63;6.90;;;16.30;76.70;;;;;;9167468;19;20018;-73
2023/10/01 06:19:23;;;;;;;17.08;7.30;;;16.30;76.70;;;;;;9170187;19;20366;-70
2023/10/01 06:22:31;;;;;;;18.55;7.15;;;16.30;76.70;;;;;;9170519;19;20019;-73
2023/10/01 06:25:47;;;;;;;19.88;6.70;;;16.30;76.70;;;;;;9172605;19;20494;-73
2023/10/01 06:28:56;;;;;;;17.30;7.20;;;16.30;76.80;;;;;;9169857;19;20029;-72
2023/10/01 06:32:04;;;;;;;17.35;6.75;;;16.30;77.90;;;;;;9167190;19;20022;-70
2023/10/01 06:35:14;;;;;;;18.20;6.30;;;16.30;77.50;;;;;;9169938;19;20524;-73
2023/10/01 06:38:21;;;;;;;17.50;7.47;;;16.30;77.90;;;;;;9169550;19;20018;-70
2023/10/01 06:41:28;;;;;;;15.45;6.97;;;16.40;79.00;;;;;;9167803;19;20436;-73
2023/10/01 06:44:40;;;;;;;18.00;6.80;;;16.50;81.50;;;;;;9168162;19;20011;-74
2023/10/01 06:47:46;;;;;;;16.80;7.07;;;16.40;79.00;;;;;;9168064;19;20025;-71
2023/10/01 06:50:54;;;;;;;17.00;7.53;;;16.40;79.60;;;;;;9171514;19;20015;-75
2023/10/01 06:54:05;;;;;;;17.83;6.93;;;16.40;76.20;;;;;;9163716;19;20558;-72
2023/10/01 06:57:17;;;;;;;17.20;7.30;;;16.40;76.60;;;;;;9164927;19;20034;-70
2023/10/01 07:00:30;;;;;;;19.55;7.13;;;16.40;76.60;;;;;;9166029;19;20500;-71
2023/10/01 07:03:38;;;;;;;14.93;6.60;;;16.40;76.70;;;;;;9163671;19;20451;-71
2023/10/01 07:06:44;;;;;;;19.23;6.95;;;16.40;76.70;;;;;;9164410;19;20018;-72
2023/10/01 07:09:53;;;;;;;20.83;6.93;;;16.40;76.70;;;;;;9166088;19;20114;-74
2023/10/01 07:13:04;;;;;;;16.63;6.45;;;16.50;76.70;;;;;;9164734;19;20017;-71
2023/10/01 07:16:35;;;;;;;12.60;6.55;;;16.50;76.70;;;;;;9163060;19;20018;-72
2023/10/01 07:19:41;;;;;;;16.33;7.35;;;16.50;76.80;;;;;;9170098;19;20435;-74
2023/10/01 07:22:49;;;;;;;20.50;6.80;;;16.60;76.80;;;;;;9165834;19;20015;-72
2023/10/01 07:26:01;;;;;;;17.23;8.13;;;16.60;76.80;;;;;;9164145;19;20107;-72
2023/10/01 07:29:09;;;;;;;15.57;6.82;;;16.60;76.90;;;;;;9167729;19;20493;-72
2023/10/01 07:32:17;;;;;;;16.30;6.18;;;16.60;76.80;;;;;;9165046;19;20078;-72
2023/10/01 07:35:25;;;;;;;19.48;6.93;;;16.60;77.80;;;;;;9169736;19;20014;-74
2023/10/01 07:38:32;;;;;;;20.80;7.22;;;16.70;76.90;;;;;;9166219;19;20034;-72
2023/10/01 07:41:44;;;;;;;19.80;6.97;;;16.70;76.80;;;;;;9166137;19;20039;-73
2023/10/01 07:44:49;;;;;;;16.05;6.85;;;16.70;76.80;;;;;;9164162;19;20018;-72
2023/10/01 07:51:40;;;;;;;16.65;6.97;;;16.80;76.90;;;;;;9166289;19;20019;-72
2023/10/01 07:54:50;;;;;;;11.63;5.90;;;16.80;77.40;;;;;;9161616;19;20018;-71
2023/10/01 07:58:18;;;;;;;19.38;7.20;;;16.90;76.90;;;;;;9166948;19;20031;-72
2023/10/01 08:01:36;;;;;;;18.42;7.00;;;16.90;76.80;;;;;;9167815;19;20035;-70
2023/10/01 08:08:06;;;;;;;17.55;7.18;;;17.00;76.80;;;;;;9169350;19;20011;-72
2023/10/01 08:14:33;;;;;;;19.10;7.25;;;17.00;76.70;;;;;;9168439;19;20781;-73
2023/10/01 08:17:43;;;;;;;18.17;7.20;;;17.10;76.80;;;;;;9166269;19;20546;-74
2023/10/01 08:20:57;;;;;;;17.17;6.82;;;17.10;76.80;;;;;;9163020;19;20033;-72
2023/10/01 08:24:09;;;;;;;19.63;6.85;;;17.10;76.80;;;;;;9164134;19;20015;-74
2023/10/01 08:27:34;;;;;;;16.27;6.82;;;17.10;76.80;;;;;;9165879;19;20014;-73
2023/10/01 08:30:39;;;;;;;17.08;7.20;;;17.20;76.80;;;;;;9166336;19;20014;-74
2023/10/01 08:33:51;;;;;;;31.00;8.07;;;17.20;76.80;;;;;;9166459;19;20022;-75
2023/10/01 08:36:55;;;;;;;21.70;7.80;;;17.20;76.80;;;;;;9167544;19;20010;-75
2023/10/01 08:40:13;;;;;;;15.65;6.75;;;17.30;76.80;;;;;;9166786;19;20018;-73
2023/10/01 08:43:21;;;;;;;15.95;6.80;;;17.30;76.90;;;;;;9163774;19;20025;-73
2023/10/01 08:46:31;;;;;;;17.85;7.20;;;17.40;76.80;;;;;;9163997;19;20019;-72
2023/10/01 08:49:41;;;;;;;34.20;8.32;;;17.40;76.80;;;;;;9162003;19;20026;-74
2023/10/01 08:52:58;;;;;;;18.45;7.35;;;17.50;77.10;;;;;;9164769;19;20341;-74
2023/10/01 08:56:07;;;;;;;18.33;7.57;;;17.70;77.20;;;;;;9160179;19;20118;-73
2023/10/01 08:59:23;;;;;;;16.77;7.10;;;17.60;79.90;;;;;;9162310;19;20018;-72
2023/10/01 09:02:32;;;;;;;19.02;7.72;;;17.80;77.50;;;;;;9163384;19;20046;-73
2023/10/01 09:05:46;;;;;;;20.92;7.57;;;17.60;77.40;;;;;;9162593;19;20103;-73
2023/10/01 09:08:54;;;;;;;23.48;8.10;;;17.90;76.90;;;;;;9162849;19;20018;-70
2023/10/01 09:12:18;;;;;;;19.45;7.55;;;18.00;76.80;;;;;;9161712;19;20018;-72
2023/10/01 09:15:28;;;;;;;21.48;7.25;;;18.10;76.90;;;;;;9164452;19;20015;-72
2023/10/01 09:18:37;;;;;;;17.52;7.68;;;18.30;77.20;;;;;;9161863;19;20014;-73
2023/10/01 09:21:46;;;;;;;18.88;7.35;;;18.40;77.40;;;;;;9164149;19;20118;-70
2023/10/01 09:25:01;;;;;;;21.55;7.57;;;18.50;77.20;;;;;;9162803;19;20025;-72
2023/10/01 09:28:29;;;;;;;17.98;7.70;;;18.90;79.80;;;;;;9162982;19;20174;-71
2023/10/01 09:31:52;;;;;;;17.95;7.05;;;19.10;77.40;;;;;;9164312;19;20493;-73
2023/10/01 09:34:58;;;;;;;19.85;7.53;;;19.30;83.30;;;;;;9167759;19;20006;-72
2023/10/01 09:38:11;;;;;;;18.73;7.90;;;19.20;80.00;;;;;;9163691;19;20019;-73
2023/10/01 09:41:27;;;;;;;23.88;7.82;;;19.70;78.50;;;;;;9165703;19;20062;-71
2023/10/01 09:44:46;;;;;;;16.63;7.00;;;20.00;76.60;;;;;;9161850;19;20030;-75
2023/10/01 09:47:56;;;;;;;18.65;7.43;;;20.30;79.30;;;;;;9163521;19;20044;-73
2023/10/01 09:51:13;;;;;;;21.55;7.45;;;20.50;76.90;;;;;;9163230;19;20336;-71
2023/10/01 09:54:28;;;;;;;19.23;7.20;;;20.70;75.70;;;;;;9162179;19;20026;-73
2023/10/01 09:57:37;;;;;;;20.95;7.13;;;21.00;76.10;;;;;;9162501;19;20006;-71
2023/10/01 10:00:46;;;;;;;22.23;8.20;;;21.10;75.30;;;;;;9163419;19;20368;-72
2023/10/01 10:03:54;;;;;;;18.02;6.82;;;21.30;75.00;;;;;;9165232;19;20021;-70
2023/10/01 10:07:04;;;;;;;21.92;7.78;;;21.50;75.00;;;;;;9166014;19;20022;-74
2023/10/01 10:10:24;;;;;;;20.75;6.85;;;21.70;76.30;;;;;;9165352;19;20036;-72
2023/10/01 10:13:36;;;;;;;16.30;6.80;;;21.90;76.90;;;;;;9163094;19;20462;-72
2023/10/01 10:17:00;;;;;;;18.67;7.90;;;22.00;76.20;;;;;;9163332;19;20025;-74
2023/10/01 10:20:25;;;;;;;22.23;8.13;;;22.10;73.90;;;;;;9168127;19;20018;-73
2023/10/01 10:23:56;;;;;;;16.88;6.57;;;22.20;75.80;;;;;;9166209;19;20022;-78
2023/10/01 10:27:09;;;;;;;16.77;7.03;;;22.20;73.50;;;;;;9165935;19;20078;-75
2023/10/01 10:30:21;;;;;;;15.57;7.15;;;22.30;73.50;;;;;;9165402;19;20018;-75
2023/10/01 10:33:39;;;;;;;20.95;6.90;;;22.40;73.30;;;;;;9164517;19;20022;-72
2023/10/01 10:37:01;;;;;;;18.13;7.25;;;22.50;73.20;;;;;;9170335;19;20007;-71
2023/10/01 10:40:12;;;;;;;21.65;7.45;;;22.60;73.20;;;;;;9180024;19;20842;-77
2023/10/01 10:43:21;;;;;;;20.52;7.05;;;22.80;73.00;;;;;;9171743;19;20015;-73
2023/10/01 10:46:27;;;;;;;18.75;6.70;;;22.90;75.90;;;;;;9185273;19;20017;-71
2023/10/01 10:49:56;;;;;;;19.48;7.25;;;22.90;72.50;;;;;;9174713;19;20007;-75
2023/10/01 10:53:14;;;;;;;19.02;7.28;;;23.00;72.20;;;;;;9168641;19;21028;-72
2023/10/01 10:56:35;;;;;;;18.00;5.78;;;23.10;72.40;;;;;;9162113;19;20025;-76
2023/10/01 10:59:49;;;;;;;17.25;6.20;;;23.20;73.70;;;;;;9165269;19;20034;-74
2023/10/01 11:02:57;;;;;;;21.60;6.93;;;23.20;72.10;;;;;;9164981;19;20769;-73
2023/10/01 11:06:18;;;;;;;20.52;7.53;;;23.20;72.00;;;;;;9159824;19;20086;-73
2023/10/01 11:09:26;;;;;;;20.77;7.57;;;23.30;72.10;;;;;;9163343;19;20010;-75
2023/10/01 11:12:34;;;;;;;20.27;8.00;;;23.30;71.80;;;;;;9161390;19;20125;-75
2023/10/01 11:15:41;;;;;;;19.55;6.97;;;23.50;73.20;;;;;;9165524;19;20022;-76
2023/10/01 11:18:47;;;;;;;20.02;6.47;;;23.50;72.50;;;;;;9164601;19;20014;-71
2023/10/01 11:22:00;;;;;;;18.40;7.25;;;23.60;72.40;;;;;;9165289;19;20050;-77
2023/10/01 11:25:12;;;;;;;17.88;6.72;;;23.60;72.50;;;;;;9165368;19;20014;-74
2023/10/01 11:28:19;;;;;;;20.50;6.78;;;23.70;73.20;;;;;;9163894;19;20014;-71
2023/10/01 11:31:25;;;;;;;18.80;6.88;;;23.80;71.20;;;;;;9160682;19;20026;-70
2023/10/01 11:34:43;;;;;;;17.13;6.13;;;23.80;71.00;;;;;;9160226;19;20018;-68
2023/10/01 11:37:56;;;;;;;18.77;6.20;;;24.00;70.80;;;;;;9158428;19;20019;-69
2023/10/01 11:41:13;;;;;;;18.80;6.97;;;24.10;70.70;;;;;;9162313;19;20018;-71
2023/10/01 11:44:35;;;;;;;20.80;7.05;;;24.20;70.60;;;;;;9160902;19;20492;-70
2023/10/01 11:48:05;;;;;;;16.85;5.90;;;24.40;70.50;;;;;;9161280;19;20017;-69
2023/10/01 11:51:26;;;;;;;21.42;6.57;;;24.50;70.30;;;;;;9161198;19;20641;-72
2023/10/01 11:54:52;;;;;;;17.75;6.38;;;24.80;70.50;;;;;;9154854;19;20014;-69
2023/10/01 11:57:58;;;;;;;12.32;5.00;;;24.70;70.20;;;;;;9154286;19;20117;-69
2023/10/01 12:01:12;;;;;;;16.27;5.35;;;25.00;72.40;;;;;;9162220;19;20022;-69
2023/10/01 12:04:43;;;;;;;21.00;5.78;;;24.80;69.90;;;;;;9161740;19;20011;-71
2023/10/01 12:07:52;;;;;;;14.60;5.47;;;24.90;69.70;;;;;;9160198;19;20182;-67
2023/10/01 12:11:26;;;;;;;12.63;5.55;;;24.90;70.10;;;;;;9159163;19;20490;-71
2023/10/01 12:14:28;;;;;;;15.85;5.32;;;25.00;69.40;;;;;;9167399;19;20015;-71
2023/10/01 12:17:33;;;;;;;12.32;4.45;;;25.10;74.20;;;;;;9168040;19;20060;-73
2023/10/01 12:20:47;;;;;;;18.33;4.75;;;25.10;69.30;;;;;;9166230;19;20025;-72
2023/10/01 12:23:53;;;;;;;17.17;5.63;;;25.10;69.20;;;;;;9168344;19;20014;-72
2023/10/01 12:27:07;;;;;;;13.95;5.32;;;25.20;69.20;;;;;;9166523;19;20503;-72
2023/10/01 12:30:27;;;;;;;14.05;5.30;;;25.20;69.00;;;;;;9167522;19;20018;-72
2023/10/01 12:33:43;;;;;;;12.82;4.90;;;25.30;69.00;;;;;;9167479;19;20029;-72
2023/10/01 12:36:51;;;;;;;11.48;5.03;;;25.40;68.90;;;;;;9167974;19;20063;-71
2023/10/01 12:40:14;;;;;;;13.63;5.05;;;25.40;68.80;;;;;;9167183;19;20023;-71
2023/10/01 12:43:36;;;;;;;13.77;4.28;;;25.50;69.00;;;;;;9163816;19;20031;-71
2023/10/01 12:46:51;;;;;;;10.77;4.93;;;25.50;68.50;;;;;;9161261;19;20352;-72
2023/10/01 12:50:09;;;;;;;11.80;3.85;;;25.60;68.50;;;;;;9160310;19;20022;-70
2023/10/01 12:53:19;;;;;;;9.27;4.40;;;25.70;68.50;;;;;;9158188;19;20010;-72
2023/10/01 12:56:44;;;;;;;11.77;3.58;;;25.80;74.50;;;;;;9165992;19;20047;-72
2023/10/01 13:00:21;;;;;;;10.48;4.80;;;26.10;78.10;;;;;;9165691;19;20368;-70
2023/10/01 13:03:29;;;;;;;13.13;4.45;;;25.80;76.80;;;;;;9162165;19;20023;-70
2023/10/01 13:06:39;;;;;;;12.57;4.75;;;25.70;73.60;;;;;;9164158;19;20337;-72
2023/10/01 13:13:08;;;;;;;14.85;4.75;;;25.70;73.50;;;;;;9165562;19;20006;-69
2023/10/01 13:16:17;;;;;;;12.07;4.72;;;25.50;74.10;;;;;;9165213;19;20010;-69
2023/10/01 13:19:33;;;;;;;13.23;4.82;;;25.50;75.30;;;;;;9163148;19;20011;-72
2023/10/01 13:22:41;;;;;;;9.60;4.10;;;25.40;78.70;;;;;;9162865;19;20025;-71
2023/10/01 13:26:05;;;;;;;11.40;4.38;;;25.30;67.60;;;;;;9162535;19;20023;-72
2023/10/01 13:29:28;;;;;;;12.65;4.70;;;25.30;68.00;;;;;;9164346;19;20112;-72
2023/10/01 13:32:57;;;;;;;12.32;4.78;;;25.20;68.50;;;;;;9163458;19;20033;-72
2023/10/01 13:36:12;;;;;;;15.02;5.10;;;25.30;71.60;;;;;;9166277;19;20019;-71
2023/10/01 14:09:47;;;;;;;13.07;4.15;;;25.10;67.20;;;;;;9162842;19;20017;-71
2023/10/01 14:13:00;;;;;;;12.38;4.03;;;25.10;67.30;;;;;;9164052;19;20018;-70
2023/10/01 14:16:22;;;;;;;11.43;4.47;;;25.20;67.50;;;;;;9163338;19;20007;-72
2023/10/01 14:19:30;;;;;;;11.98;4.80;;;25.20;67.50;;;;;;9165900;19;20010;-72
2023/10/01 14:22:49;;;;;;;12.48;5.05;;;25.20;67.50;;;;;;9170487;19;20526;-72
2023/10/01 14:26:10;;;;;;;13.15;5.60;;;25.20;68.30;;;;;;9169220;19;20755;-72
2023/10/01 14:29:22;;;;;;;17.42;5.05;;;25.20;68.90;;;;;;9170874;19;20019;-73
2023/10/01 14:32:37;;;;;;;9.43;4.43;;;25.10;68.30;;;;;;9172630;19;20630;-72
2023/10/01 14:35:47;;;;;;;11.38;5.15;;;25.10;69.40;;;;;;9171220;19;20015;-71
2023/10/01 14:38:58;;;;;;;15.13;5.50;;;25.00;74.40;;;;;;9171383;19;20022;-71
2023/10/01 14:42:04;;;;;;;15.18;5.32;;;25.00;68.20;;;;;;9170285;19;20018;-71
2023/10/01 14:45:13;;;;;;;15.45;5.20;;;;;;;;;;9169744;19;20026;-72
2023/10/01 14:48:18;;;;;;;12.57;5.00;;;24.90;76.20;;;;;;9168373;19;20658;-72
2023/10/01 14:51:29;;;;;;;13.93;5.13;;;24.80;67.40;;;;;;9170376;19;20014;-71
2023/10/01 14:54:37;;;;;;;13.60;4.90;;;24.70;67.60;;;;;;9167102;19;20468;-72
2023/10/01 14:57:51;;;;;;;14.23;5.47;;;24.80;68.10;;;;;;9167761;19;20017;-72
2023/10/01 15:00:57;;;;;;;14.00;5.45;;;24.70;68.40;;;;;;9168010;19;20030;-71
2023/10/01 15:04:17;;;;;;;14.57;5.43;;;24.60;68.80;;;;;;9170074;19;20019;-71
2023/10/01 15:07:23;;;;;;;13.50;5.32;;;24.60;72.60;;;;;;9165321;19;20030;-71
2023/10/01 15:10:33;;;;;;;12.05;5.10;;;24.50;72.10;;;;;;9170513;19;20499;-70
2023/10/01 15:13:39;;;;;;;16.55;5.57;;;24.50;74.70;;;;;;9170313;19;20007;-71
2023/10/01 15:16:52;;;;;;;10.82;5.05;;;24.50;68.40;;;;;;9171222;19;20018;-70
2023/10/01 15:20:27;;;;;;;14.70;5.15;;;24.40;70.60;;;;;;9169356;19;20018;-72
2023/10/01 15:23:36;;;;;;;15.30;5.22;;;24.40;72.40;;;;;;9170545;19;20014;-71
2023/10/01 15:26:45;;;;;;;15.50;5.65;;;24.30;68.40;;;;;;9169131;19;20015;-71
2023/10/01 15:29:53;;;;;;;14.70;5.70;;;24.30;71.00;;;;;;9168660;19;20026;-70
2023/10/01 15:33:00;;;;;;;18.95;6.50;;;24.30;69.30;;;;;;9167787;19;20093;-71
2023/10/01 15:36:08;;;;;;;14.70;5.70;;;24.20;71.50;;;;;;9168413;19;20357;-71
2023/10/01 15:39:36;;;;;;;31.73;6.55;;;24.20;73.70;;;;;;9170124;19;20697;-71
2023/10/01 15:42:53;;;;;;;16.10;5.80;;;24.30;72.80;;;;;;9168916;19;20019;-71
2023/10/01 15:49:21;;;;;;;12.05;5.10;;;24.20;68.90;;;;;;9166173;19;20022;-70
2023/10/01 15:52:37;;;;;;;15.50;5.65;;;24.10;68.40;;;;;;9166239;19;20586;-75
2023/10/01 15:55:55;;;;;;;17.08;5.75;;;24.10;70.20;;;;;;9163570;19;20006;-72
2023/10/01 15:59:10;;;;;;;18.38;6.25;;;24.10;70.40;;;;;;9167422;19;20019;-73
2023/10/01 16:02:21;;;;;;;15.68;5.85;;;24.10;70.50;;;;;;9163591;19;20762;-72
2023/10/01 16:05:28;;;;;;;12.88;5.43;;;24.00;68.80;;;;;;9165310;19;20018;-72
2023/10/01 16:08:36;;;;;;;17.35;7.68;;;23.90;69.60;;;;;;9163689;19;20408;-72
2023/10/01 16:11:41;;;;;;;21.52;6.53;;;23.90;70.80;;;;;;9166241;19;20394;-71
2023/10/01 16:14:56;;;;;;;13.18;5.05;;;23.90;75.30;;;;;;9165920;19;20586;-72
2023/10/01 16:18:09;;;;;;;15.48;5.68;;;23.80;68.60;;;;;;9165581;19;20021;-71
2023/10/01 16:21:18;;;;;;;16.85;6.00;;;23.80;69.80;;;;;;9164309;19;20023;-72
2023/10/01 16:24:23;;;;;;;17.55;6.43;;;23.90;73.60;;;;;;9164074;19;20401;-71
2023/10/01 16:27:32;;;;;;;13.80;6.03;;;23.80;73.60;;;;;;9162459;19;20476;-72
2023/10/01 16:30:40;;;;;;;13.82;6.20;;;23.80;71.30;;;;;;9164069;19;20385;-72
2023/10/01 16:33:59;;;;;;;15.90;5.75;;;23.70;69.40;;;;;;9164370;19;20018;-72
2023/10/01 16:37:05;;;;;;;18.08;6.55;;;23.60;71.10;;;;;;9162452;19;20010;-72
2023/10/01 16:40:21;;;;;;;19.73;6.07;;;23.50;68.80;;;;;;9163348;19;20022;-72
2023/10/01 16:43:32;;;;;;;17.00;6.97;;;23.50;69.00;;;;;;9165423;19;20030;-72
2023/10/01 16:46:44;;;;;;;13.75;6.07;;;23.50;69.00;;;;;;9162937;19;20010;-73
2023/10/01 16:49:50;;;;;;;17.95;6.80;;;23.40;69.00;;;;;;9162897;19;20033;-73
2023/10/01 16:53:02;;;;;;;16.98;6.97;;;23.30;69.10;;;;;;9164475;19;20042;-72
2023/10/01 16:56:12;;;;;;;16.23;6.13;;;23.30;69.20;;;;;;9163001;19;20014;-73
2023/10/01 16:59:22;;;;;;;13.27;6.15;;;23.30;69.80;;;;;;9166432;19;20017;-71
2023/10/01 17:02:34;;;;;;;17.27;6.70;;;23.20;70.70;;;;;;9165354;19;20029;-72
2023/10/01 17:05:45;;;;;;;16.42;6.60;;;;;;;;;;9166127;19;20247;-72
2023/10/01 17:08:54;;;;;;;18.02;6.47;;;22.80;69.10;;;;;;9163293;19;20026;-71
2023/10/01 17:12:02;;;;;;;14.77;5.90;;;23.10;71.00;;;;;;9163538;19;20018;-71
2023/10/01 17:15:29;;;;;;;13.60;5.72;;;23.00;72.20;;;;;;9166885;19;20028;-71
2023/10/01 17:18:41;;;;;;;13.52;6.40;;;;;;;;;;9165193;19;20095;-71